createdAt,value
2023-04-01T08:23:11.769Z,98948.28
2023-04-01T08:25:22.893Z,98948.28
2023-04-01T08:27:47.082Z,98897.69
2023-04-01T08:29:53.661Z,98912.00
2023-04-01T08:32:02.829Z,98909.28
2023-04-01T08:34:15.779Z,98917.94
2023-04-01T08:36:23.785Z,98912.81
2023-04-01T08:38:46.497Z,98921.56
2023-04-01T08:41:28.527Z,98945.59
2023-04-01T08:44:09.673Z,98932.66
2023-04-01T08:46:48.015Z,98950.53
2023-04-01T08:48:56.760Z,98937.22
2023-04-01T08:51:17.721Z,98962.94
2023-04-01T08:53:28.995Z,98976.62
2023-04-01T08:55:37.400Z,98992.78
2023-04-01T08:58:18.297Z,98988.91
2023-04-01T09:00:31.647Z,98983.16
2023-04-01T09:02:55.728Z,98985.28
2023-04-01T09:05:08.617Z,98994.03
2023-04-01T09:07:45.073Z,99004.16
2023-04-01T09:10:00.390Z,99005.19
2023-04-01T09:12:29.953Z,98988.13
2023-04-01T09:15:00.457Z,98990.25
2023-04-01T09:17:21.761Z,98984.53
2023-04-01T09:19:44.599Z,98971.56
2023-04-01T09:22:16.833Z,98962.94
2023-04-01T09:24:26.837Z,98985.34
2023-04-01T09:26:36.365Z,98993.09
2023-04-01T09:29:23.602Z,99017.69
2023-04-01T09:31:49.219Z,99022.81
2023-04-01T09:34:16.544Z,99033.78
2023-04-01T09:36:41.159Z,99000.44
2023-04-01T09:39:03.237Z,98965.44
2023-04-01T09:41:19.157Z,98954.34
2023-04-01T09:43:49.621Z,98932.78
2023-04-01T09:45:55.448Z,98929.75
2023-04-01T09:48:09.630Z,98922.69
2023-04-01T09:50:18.490Z,98925.81
2023-04-01T09:52:44.207Z,98915.84
2023-04-01T09:55:35.859Z,98924.03
2023-04-01T09:58:30.593Z,98943.69
2023-04-01T10:01:08.332Z,98955.34
2023-04-01T10:03:39.092Z,98962.41
2023-04-01T10:06:19.377Z,98965.81
2023-04-01T10:08:40.756Z,98962.53
2023-04-01T10:10:50.045Z,98951.56
2023-04-01T10:12:56.697Z,98936.47
2023-04-01T10:15:31.359Z,98947.22
2023-04-01T10:17:54.039Z,98979.56
2023-04-01T10:20:35.758Z,98967.81
2023-04-01T10:22:44.315Z,98978.13
2023-04-01T10:25:25.033Z,99003.19
2023-04-01T10:27:42.035Z,99020.84
2023-04-01T10:30:24.947Z,99003.00
2023-04-01T10:32:28.063Z,98987.84
2023-04-01T10:34:46.539Z,98979.22
2023-04-01T10:36:49.733Z,98993.13
2023-04-01T10:39:01.877Z,99006.62
2023-04-01T10:41:29.442Z,99016.91
2023-04-01T10:43:42.288Z,99023.13
2023-04-01T10:46:03.060Z,99019.63
2023-04-01T10:48:30.505Z,99013.00
2023-04-01T10:51:02.672Z,99009.72
2023-04-01T10:53:26.387Z,99039.16
2023-04-01T10:56:17.321Z,99042.31
2023-04-01T10:58:33.204Z,99080.09
2023-04-01T11:01:09.870Z,99080.22
2023-04-01T11:03:28.650Z,99078.69
2023-04-01T11:05:57.986Z,99066.25
2023-04-01T11:08:13.089Z,99041.53
2023-04-01T11:10:21.627Z,99018.81
2023-04-01T11:12:30.008Z,99012.47
2023-04-01T11:15:04.911Z,99035.13
2023-04-01T11:17:40.412Z,99055.81
2023-04-01T11:19:46.549Z,99050.00
2023-04-01T11:22:20.264Z,99078.91
2023-04-01T11:24:41.023Z,99100.00
2023-04-01T11:27:09.038Z,99088.31
2023-04-01T11:29:25.443Z,99130.88
2023-04-01T11:31:53.011Z,99128.91
2023-04-01T11:34:11.226Z,99142.78
2023-04-01T11:36:44.720Z,99116.94
2023-04-01T11:39:09.706Z,99118.31
2023-04-01T11:42:06.527Z,99105.50
2023-04-01T11:44:23.645Z,99101.16
2023-04-01T11:46:36.709Z,99078.84
2023-04-01T11:48:45.948Z,99062.63
2023-04-01T11:51:00.947Z,99036.56
2023-04-01T11:53:10.090Z,99019.06
2023-04-01T11:55:29.539Z,99013.97
2023-04-01T11:57:35.225Z,99001.25
2023-04-01T12:00:01.730Z,99001.44
2023-04-01T12:02:17.793Z,99014.50
2023-04-01T12:04:58.030Z,99028.28
2023-04-01T12:07:36.568Z,99030.97
2023-04-01T12:10:17.535Z,99053.69
2023-04-01T12:12:54.070Z,99062.13
2023-04-01T12:15:15.459Z,99075.97
2023-04-01T12:17:36.485Z,99091.31
2023-04-01T12:19:41.863Z,99098.94
2023-04-01T12:22:19.860Z,99123.44
2023-04-01T12:24:34.281Z,99110.16
2023-04-01T12:26:51.922Z,99111.66
2023-04-01T12:29:00.346Z,99101.81
2023-04-01T12:31:24.950Z,99109.03
2023-04-01T12:33:56.928Z,99121.06
2023-04-01T12:36:12.813Z,99104.63
2023-04-01T12:38:30.843Z,99101.28
2023-04-01T12:40:56.108Z,99097.97
2023-04-01T12:43:40.794Z,99090.09
2023-04-01T12:46:01.232Z,99082.47
2023-04-01T12:48:45.724Z,99100.19
2023-04-01T12:50:57.337Z,99102.37
2023-04-01T12:53:14.886Z,99107.13
2023-04-01T12:55:36.520Z,99129.72
2023-04-01T12:57:45.067Z,99153.72
2023-04-01T13:00:19.804Z,99170.75
2023-04-01T13:02:34.291Z,99172.06
2023-04-01T13:05:13.918Z,99149.41
2023-04-01T13:07:28.463Z,99138.31
2023-04-01T13:09:51.580Z,99126.13
2023-04-01T13:12:32.317Z,99122.66
2023-04-01T13:14:46.009Z,99124.44
2023-04-01T13:16:58.442Z,99119.66
2023-04-01T13:19:19.698Z,99120.91
2023-04-01T13:21:40.883Z,99137.16
2023-04-01T13:23:52.585Z,99165.63
2023-04-01T13:26:13.640Z,99170.25
2023-04-01T13:28:26.988Z,99171.97
2023-04-01T13:30:39.348Z,99173.88
2023-04-01T13:32:55.305Z,99161.69
2023-04-01T13:35:28.812Z,99153.66
2023-04-01T13:38:04.383Z,99156.75
2023-04-01T13:40:26.026Z,99157.47
2023-04-01T13:42:32.519Z,99159.81
2023-04-01T13:44:56.222Z,99160.94
2023-04-01T13:47:07.772Z,99160.84
2023-04-01T13:49:25.410Z,99147.72
2023-04-01T13:51:36.695Z,99150.53
2023-04-01T13:53:45.586Z,99153.63
2023-04-01T13:56:23.412Z,99138.50
2023-04-01T13:59:03.949Z,99143.44
2023-04-01T14:01:11.837Z,99144.12
2023-04-01T14:03:53.743Z,99145.81
2023-04-01T14:06:15.562Z,99149.72
2023-04-01T14:08:51.096Z,99143.06
2023-04-01T14:11:26.131Z,99131.06
2023-04-01T14:13:58.019Z,99137.00
2023-04-01T14:16:09.405Z,99134.22
2023-04-01T14:18:25.017Z,99136.75
2023-04-01T14:20:34.476Z,99130.34
2023-04-01T14:22:53.257Z,99107.78
2023-04-01T14:25:24.829Z,99104.06
2023-04-01T14:27:47.138Z,99110.53
2023-04-01T14:30:08.731Z,99103.91
2023-04-01T14:33:09.304Z,99100.84
2023-04-01T14:35:20.965Z,99097.53
2023-04-01T14:37:57.093Z,99113.94
2023-04-01T14:40:21.065Z,99133.22
2023-04-01T14:42:29.666Z,99149.91
2023-04-01T14:44:57.268Z,99147.37
2023-04-01T14:47:05.803Z,99137.91
2023-04-01T14:49:23.372Z,99124.19
2023-04-01T14:51:39.498Z,99124.37
2023-04-01T14:53:58.189Z,99119.91
2023-04-01T14:56:03.906Z,99116.06
2023-04-01T14:58:16.851Z,99121.44
2023-04-01T15:00:19.938Z,99113.50
2023-04-01T15:02:50.357Z,99114.44
2023-04-01T15:05:27.973Z,99099.88
2023-04-01T15:07:31.010Z,99101.87
2023-04-01T15:09:48.738Z,99111.44
2023-04-01T15:11:57.804Z,99096.28
2023-04-01T15:14:03.014Z,99099.16
2023-04-01T15:16:33.049Z,99098.22
2023-04-01T15:18:47.538Z,99084.66
2023-04-01T15:21:07.966Z,99084.78
2023-04-01T15:23:29.193Z,99087.66
2023-04-01T15:25:59.448Z,99085.44
2023-04-01T15:28:13.980Z,99081.72
2023-04-01T15:30:26.459Z,99090.19
2023-04-01T15:32:49.920Z,99074.84
2023-04-01T15:35:14.739Z,99082.78
2023-04-01T15:37:28.462Z,99101.22
2023-04-01T15:40:03.158Z,99107.91
2023-04-01T15:42:23.810Z,99107.63
2023-04-01T15:44:52.345Z,99117.94
2023-04-01T15:46:57.207Z,99126.56
2023-04-01T15:49:10.683Z,99131.41
2023-04-01T15:51:23.199Z,99127.66
2023-04-01T15:53:31.875Z,99129.34
2023-04-01T15:56:01.137Z,99130.47
2023-04-01T15:58:21.103Z,99135.44
2023-04-01T16:00:30.793Z,99143.22
2023-04-01T16:02:44.880Z,99143.81
2023-04-01T16:05:09.247Z,99148.47
2023-04-01T16:07:11.602Z,99152.25
2023-04-01T16:09:40.462Z,99148.34
2023-04-01T16:11:48.533Z,99152.25
2023-04-01T16:14:25.997Z,99162.75
2023-04-01T16:16:43.833Z,99173.25
2023-04-01T16:19:08.200Z,99169.38
2023-04-01T16:21:20.863Z,99174.06
2023-04-01T16:23:42.069Z,99175.78
2023-04-01T16:25:57.775Z,99176.03
2023-04-01T16:28:29.989Z,99171.19
2023-04-01T16:30:45.005Z,99180.88
2023-04-01T16:32:54.836Z,99186.97
2023-04-01T16:35:25.663Z,99174.47
2023-04-01T16:37:47.299Z,99175.75
2023-04-01T16:40:10.889Z,99178.75
2023-04-01T16:42:33.066Z,99169.09
2023-04-01T16:45:04.473Z,99177.50
2023-04-01T16:47:11.877Z,99179.81
2023-04-01T16:49:17.190Z,99173.03
2023-04-01T16:51:20.915Z,99174.69
2023-04-01T16:53:46.238Z,99169.56
2023-04-01T16:56:06.049Z,99177.03
2023-04-01T16:58:15.080Z,99183.22
2023-04-01T17:00:24.085Z,99183.06
2023-04-01T17:02:33.232Z,99175.88
2023-04-01T17:04:46.133Z,99174.72
2023-04-01T17:07:00.476Z,99172.50
2023-04-01T17:09:31.520Z,99180.56
2023-04-01T17:11:46.765Z,99171.38
2023-04-01T17:14:08.124Z,99175.22
2023-04-01T17:16:39.788Z,99172.81
2023-04-01T17:19:25.660Z,99169.87
2023-04-01T17:21:34.007Z,99166.41
2023-04-01T17:23:45.746Z,99161.44
2023-04-01T17:25:54.931Z,99161.47
2023-04-01T17:28:37.478Z,99164.69
2023-04-01T17:31:16.013Z,99162.56
2023-04-01T17:33:54.301Z,99158.81
2023-04-01T17:36:07.144Z,99157.72
2023-04-01T17:38:31.974Z,99164.75
2023-04-01T17:40:51.808Z,99160.19
2023-04-01T17:43:27.140Z,99156.41
2023-04-01T17:45:56.171Z,99156.56
2023-04-01T17:48:44.049Z,99152.53
2023-04-01T17:51:16.936Z,99151.50
2023-04-01T17:53:54.387Z,99156.22
2023-04-01T17:56:05.079Z,99145.81
2023-04-01T17:58:36.175Z,99145.81
2023-04-01T18:01:02.021Z,99139.84
2023-04-01T18:03:42.636Z,99147.72
2023-04-01T18:06:07.200Z,99153.94
2023-04-01T18:08:38.116Z,99154.31
2023-04-01T18:11:20.085Z,99150.47
2023-04-01T18:13:36.331Z,99165.50
2023-04-01T18:15:52.475Z,99166.97
2023-04-01T18:18:20.188Z,99167.34
2023-04-01T18:20:55.593Z,99164.97
2023-04-01T18:23:14.043Z,99171.44
2023-04-01T18:25:38.302Z,99169.66
2023-04-01T18:27:47.558Z,99169.56
2023-04-01T18:30:03.363Z,99163.22
2023-04-01T18:32:37.435Z,99166.50
2023-04-01T18:35:00.122Z,99160.78
2023-04-01T18:37:40.774Z,99161.63
2023-04-01T18:39:50.180Z,99164.97
2023-04-01T18:42:27.339Z,99154.00
2023-04-01T18:44:59.609Z,99165.19
2023-04-01T18:47:22.137Z,99169.03
2023-04-01T18:49:35.812Z,99166.41
2023-04-01T18:51:51.252Z,99168.31
2023-04-01T18:54:10.713Z,99165.59
2023-04-01T18:56:28.130Z,99164.91
2023-04-01T18:59:05.022Z,99167.84
2023-04-01T19:01:26.244Z,99168.72
2023-04-01T19:03:42.114Z,99166.97
2023-04-01T19:05:48.728Z,99168.25
2023-04-01T19:07:57.669Z,99170.16
2023-04-01T19:11:02.888Z,99163.50
2023-04-01T19:13:12.724Z,99163.41
2023-04-01T19:15:31.412Z,99164.22
2023-04-01T19:18:08.564Z,99152.34
2023-04-01T19:20:43.406Z,99166.84
2023-04-01T19:22:50.273Z,99159.47
2023-04-01T19:25:23.424Z,99161.75
2023-04-01T19:27:40.602Z,99154.81
2023-04-01T19:30:12.096Z,99145.41
2023-04-01T19:32:40.684Z,99148.16
2023-04-01T19:35:07.617Z,99145.28
2023-04-01T19:37:32.171Z,99149.78
2023-04-01T19:39:54.608Z,99148.16
2023-04-01T19:42:21.573Z,99154.44
2023-04-01T19:45:41.979Z,99155.03
2023-04-01T19:48:12.935Z,99161.25
2023-04-01T19:50:25.172Z,99157.66
2023-04-01T19:52:42.531Z,99161.25
2023-04-01T19:55:17.124Z,99159.47
2023-04-01T19:57:23.497Z,99165.91
2023-04-01T19:59:57.950Z,99158.38
2023-04-01T20:02:12.437Z,99159.56
2023-04-01T20:04:33.577Z,99169.91
2023-04-01T20:06:45.481Z,99156.47
2023-04-01T20:09:16.435Z,99145.19
2023-04-01T20:11:46.384Z,99158.03
2023-04-01T20:14:06.740Z,99152.66
2023-04-01T20:16:10.964Z,99145.91
2023-04-01T20:18:23.592Z,99148.25
2023-04-01T20:20:33.379Z,99143.28
2023-04-01T20:23:08.592Z,99140.19
2023-04-01T20:25:18.284Z,99130.06
2023-04-01T20:27:28.483Z,99117.44
2023-04-01T20:29:33.033Z,99123.84
2023-04-01T20:31:43.628Z,99118.19
2023-04-01T20:33:55.626Z,99123.16
2023-04-01T20:36:37.245Z,99115.06
2023-04-01T20:38:52.507Z,99125.66
2023-04-01T20:41:09.173Z,99115.19
2023-04-01T20:43:14.696Z,99114.72
2023-04-01T20:45:29.449Z,99118.25
2023-04-01T20:47:57.197Z,99113.28
2023-04-01T20:50:17.050Z,99104.38
2023-04-01T20:52:32.374Z,99113.16
2023-04-01T20:55:22.844Z,99119.59
2023-04-01T20:57:31.659Z,99110.53
2023-04-01T20:59:48.392Z,99110.19
2023-04-01T21:02:19.226Z,99115.28
2023-04-01T21:04:56.652Z,99113.38
2023-04-01T21:07:11.264Z,99105.06
2023-04-01T21:09:25.817Z,99083.03
2023-04-01T21:11:57.692Z,99067.66
2023-04-01T21:14:37.732Z,99051.47
2023-04-01T21:16:54.072Z,99033.97
2023-04-01T21:19:26.723Z,99035.31
2023-04-01T21:21:41.272Z,99027.47
2023-04-01T21:24:05.160Z,99015.50
2023-04-01T21:26:31.719Z,99002.22
2023-04-01T21:28:50.002Z,98997.34
2023-04-01T21:31:17.891Z,98989.00
2023-04-01T21:33:43.734Z,98978.50
2023-04-01T21:36:17.413Z,98998.22
2023-04-01T21:38:45.450Z,99012.38
2023-04-01T21:41:35.947Z,99024.72
2023-04-01T21:43:53.775Z,99045.28
2023-04-01T21:46:11.675Z,99110.44
2023-04-01T21:48:17.220Z,99120.28
2023-04-01T21:50:45.103Z,99140.09
2023-04-01T21:53:16.135Z,99159.75
2023-04-01T21:55:48.623Z,99169.97
2023-04-01T21:57:56.866Z,99182.66
2023-04-01T22:00:01.831Z,99189.03
2023-04-01T22:02:41.801Z,99184.75
2023-04-01T22:05:08.443Z,99187.25
2023-04-01T22:07:24.714Z,99171.84
2023-04-01T22:09:36.561Z,99183.69
2023-04-01T22:12:03.959Z,99187.38
2023-04-01T22:14:22.378Z,99189.59
2023-04-01T22:16:38.023Z,99191.03
2023-04-01T22:18:51.930Z,99181.81
2023-04-01T22:21:06.306Z,99190.22
2023-04-01T22:23:09.085Z,99188.41
2023-04-01T22:25:22.598Z,99179.38
2023-04-01T22:27:37.466Z,99174.66
2023-04-01T22:29:48.092Z,99174.16
2023-04-01T22:31:54.307Z,99178.37
2023-04-01T22:34:09.962Z,99170.91
2023-04-01T22:36:41.883Z,99169.22
2023-04-01T22:38:56.057Z,99166.62
2023-04-01T22:41:19.852Z,99161.63
2023-04-01T22:43:44.266Z,99163.41
2023-04-01T22:45:49.814Z,99164.47
2023-04-01T22:48:02.501Z,99162.19
2023-04-01T22:50:26.263Z,99163.66
2023-04-01T22:52:34.868Z,99150.19
2023-04-01T22:54:49.013Z,99149.97
2023-04-01T22:56:56.661Z,99145.69
2023-04-01T22:59:14.749Z,99150.91
2023-04-01T23:01:24.640Z,99149.69
2023-04-01T23:03:31.752Z,99138.41
2023-04-01T23:05:41.014Z,99133.34
2023-04-01T23:07:50.286Z,99133.19
2023-04-01T23:09:55.569Z,99138.41
2023-04-01T23:12:02.198Z,99132.06
2023-04-01T23:14:24.497Z,99136.12
2023-04-01T23:16:36.850Z,99135.09
2023-04-01T23:19:03.113Z,99130.84
2023-04-01T23:21:08.183Z,99125.63
2023-04-01T23:23:33.647Z,99123.44
2023-04-01T23:25:57.613Z,99114.97
2023-04-01T23:28:33.984Z,99114.97
2023-04-01T23:30:39.891Z,99108.38
2023-04-01T23:32:42.407Z,99109.87
2023-04-01T23:34:53.133Z,99103.91
2023-04-01T23:37:04.215Z,99096.41
2023-04-01T23:39:31.454Z,99088.91
2023-04-01T23:41:34.438Z,99074.75
2023-04-01T23:43:40.441Z,99088.91
2023-04-01T23:45:43.743Z,99095.78
2023-04-01T23:47:49.946Z,99097.69
2023-04-01T23:49:57.119Z,99098.84
2023-04-01T23:52:05.353Z,99099.13
2023-04-01T23:54:24.335Z,99108.84
2023-04-01T23:56:55.540Z,99098.34
2023-04-01T23:58:57.935Z,99102.81
